createdAt,value
2023-04-01T00:00:13.582Z,993.99
2023-04-01T00:01:13.507Z,993.96
2023-04-01T00:02:13.657Z,993.96
2023-04-01T00:03:13.658Z,993.98
2023-04-01T00:04:13.811Z,993.99
2023-04-01T00:05:13.946Z,993.97
2023-04-01T00:06:13.043Z,993.99
2023-04-01T00:07:12.941Z,993.92
2023-04-01T00:08:13.058Z,993.99
2023-04-01T00:09:12.994Z,993.96
2023-04-01T00:10:12.968Z,993.97
2023-04-01T00:11:12.881Z,994.00
2023-04-01T00:12:14.016Z,993.95
2023-04-01T00:13:13.081Z,993.92
2023-04-01T00:14:12.976Z,993.98
2023-04-01T00:15:18.130Z,993.98
2023-04-01T00:16:21.672Z,993.92
2023-04-01T00:17:13.778Z,993.98
2023-04-01T00:18:13.696Z,993.95
2023-04-01T00:19:13.852Z,993.91
2023-04-01T00:20:13.993Z,993.97
2023-04-01T00:21:18.110Z,993.99
2023-04-01T00:22:13.089Z,993.93
2023-04-01T00:23:13.444Z,993.94
2023-04-01T00:24:13.409Z,994.00
2023-04-01T00:25:13.310Z,993.91
2023-04-01T00:26:13.696Z,994.00
2023-04-01T00:27:13.651Z,993.90
2023-04-01T00:28:13.984Z,993.92
2023-04-01T00:29:13.725Z,993.92
2023-04-01T00:30:13.950Z,993.95
2023-04-01T00:31:13.136Z,993.92
2023-04-01T00:32:13.308Z,993.96
2023-04-01T00:33:13.291Z,993.87
2023-04-01T00:34:13.478Z,993.88
2023-04-01T00:35:13.724Z,993.91
2023-04-01T00:36:13.796Z,993.89
2023-04-01T00:37:13.763Z,993.90
2023-04-01T00:38:14.230Z,993.94
2023-04-01T00:39:13.230Z,993.84
2023-04-01T00:40:13.226Z,993.88
2023-04-01T00:41:13.125Z,993.91
2023-04-01T00:42:13.541Z,993.85
2023-04-01T00:43:13.425Z,993.91
2023-04-01T00:44:13.504Z,993.95
2023-04-01T00:45:13.553Z,993.87
2023-04-01T00:46:13.503Z,993.85
2023-04-01T00:47:13.589Z,993.83
2023-04-01T00:48:13.797Z,993.92
2023-04-01T00:49:14.037Z,993.83
2023-04-01T00:50:12.840Z,993.84
2023-04-01T00:51:13.885Z,993.82
2023-04-01T00:52:13.062Z,993.88
2023-04-01T00:53:13.149Z,993.85
2023-04-01T00:54:13.217Z,993.88
2023-04-01T00:55:13.303Z,993.86
2023-04-01T00:56:13.320Z,993.83
2023-04-01T00:57:13.506Z,993.87
2023-04-01T00:58:13.512Z,993.89
2023-04-01T00:59:13.581Z,993.81
2023-04-01T01:00:13.473Z,993.85
2023-04-01T01:01:17.685Z,993.81
2023-04-01T01:02:13.717Z,993.81
2023-04-01T01:03:13.817Z,993.82
2023-04-01T01:04:12.819Z,993.79
2023-04-01T01:05:13.872Z,993.84
2023-04-01T01:06:13.771Z,993.80
2023-04-01T01:07:13.757Z,993.77
2023-04-01T01:08:13.660Z,993.81
2023-04-01T01:09:13.558Z,993.83
2023-04-01T01:10:13.437Z,993.77
2023-04-01T01:11:14.187Z,993.77
2023-04-01T01:12:13.283Z,993.80
2023-04-01T01:13:13.174Z,993.82
2023-04-01T01:14:13.170Z,993.77
2023-04-01T01:15:13.067Z,993.80
2023-04-01T01:16:13.176Z,993.80
2023-04-01T01:17:13.365Z,993.79
2023-04-01T01:18:13.322Z,993.84
2023-04-01T01:19:13.289Z,993.80
2023-04-01T01:20:22.979Z,993.78
2023-04-01T01:21:13.142Z,993.81
2023-04-01T01:22:13.180Z,993.79
2023-04-01T01:23:13.520Z,993.77
2023-04-01T01:24:13.875Z,993.74
2023-04-01T01:25:12.777Z,993.75
2023-04-01T01:26:13.731Z,993.74
2023-04-01T01:27:13.659Z,993.72
2023-04-01T01:28:13.630Z,993.68
2023-04-01T01:29:13.588Z,993.73
2023-04-01T01:30:13.497Z,993.63
2023-04-01T01:31:13.862Z,993.67
2023-04-01T01:32:14.017Z,993.68
2023-04-01T01:33:12.943Z,993.67
2023-04-01T01:34:13.110Z,993.67
2023-04-01T01:35:13.036Z,993.67
2023-04-01T01:36:13.194Z,993.66
2023-04-01T01:37:13.207Z,993.68
2023-04-01T01:38:13.062Z,993.68
2023-04-01T01:39:13.276Z,993.69
2023-04-01T01:40:13.149Z,993.70
2023-04-01T01:41:13.181Z,993.67
2023-04-01T01:42:13.226Z,993.66
2023-04-01T01:43:14.315Z,993.66
2023-04-01T01:44:13.227Z,993.64
2023-04-01T01:45:13.105Z,993.70
2023-04-01T01:46:13.337Z,993.66
2023-04-01T01:47:13.424Z,993.67
2023-04-01T01:48:13.560Z,993.68
2023-04-01T01:49:13.608Z,993.63
2023-04-01T01:50:13.525Z,993.60
2023-04-01T01:51:13.628Z,993.65
2023-04-01T01:52:13.888Z,993.61
2023-04-01T01:53:12.875Z,993.54
2023-04-01T01:54:14.109Z,993.61
2023-04-01T01:55:13.017Z,993.59
2023-04-01T01:56:12.897Z,993.50
2023-04-01T01:57:13.290Z,993.63
2023-04-01T01:58:13.282Z,993.64
2023-04-01T01:59:13.700Z,993.63
2023-04-01T02:00:13.839Z,993.60
2023-04-01T02:01:13.796Z,993.61
2023-04-01T02:02:14.026Z,993.54
2023-04-01T02:03:13.025Z,993.66
2023-04-01T02:04:13.354Z,993.69
2023-04-01T02:05:13.509Z,993.68
2023-04-01T02:06:13.712Z,993.65
2023-04-01T02:07:13.542Z,993.62
2023-04-01T02:08:13.337Z,993.66
2023-04-01T02:09:13.399Z,993.59
2023-04-01T02:10:13.560Z,993.71
2023-04-01T02:11:13.491Z,993.67
2023-04-01T02:12:13.865Z,993.67
2023-04-01T02:13:12.821Z,993.72
2023-04-01T02:14:13.968Z,993.70
2023-04-01T02:15:12.962Z,993.69
2023-04-01T02:16:12.915Z,993.69
2023-04-01T02:17:13.224Z,993.67
2023-04-01T02:18:13.377Z,993.66
2023-04-01T02:19:13.497Z,993.67
2023-04-01T02:20:13.558Z,993.64
2023-04-01T02:21:13.490Z,993.62
2023-04-01T02:22:13.413Z,993.63
2023-04-01T02:23:13.784Z,993.64
2023-04-01T02:24:13.872Z,993.65
2023-04-01T02:25:13.619Z,993.64
2023-04-01T02:26:13.442Z,993.62
2023-04-01T02:27:13.702Z,993.56
2023-04-01T02:28:13.588Z,993.62
2023-04-01T02:29:13.418Z,993.56
2023-04-01T02:30:13.361Z,993.66
2023-04-01T02:31:13.302Z,993.67
2023-04-01T02:32:13.285Z,993.62
2023-04-01T02:33:13.227Z,993.61
2023-04-01T02:34:13.196Z,993.60
2023-04-01T02:35:13.157Z,993.54
2023-04-01T02:36:13.319Z,993.57
2023-04-01T02:37:13.587Z,993.59
2023-04-01T02:38:13.635Z,993.57
2023-04-01T02:39:13.693Z,993.53
2023-04-01T02:40:13.849Z,993.54
2023-04-01T02:41:14.208Z,993.52
2023-04-01T02:42:13.182Z,993.51
2023-04-01T02:43:13.386Z,993.55
2023-04-01T02:44:13.298Z,993.54
2023-04-01T02:45:13.422Z,993.54
2023-04-01T02:46:13.280Z,993.49
2023-04-01T02:47:13.550Z,993.57
2023-04-01T02:48:13.640Z,993.50
2023-04-01T02:49:13.832Z,993.48
2023-04-01T02:50:13.971Z,993.53
2023-04-01T02:51:13.390Z,993.54
2023-04-01T02:52:13.600Z,993.49
2023-04-01T02:53:13.617Z,993.51
2023-04-01T02:54:13.541Z,993.49
2023-04-01T02:55:13.850Z,993.55
2023-04-01T02:56:14.145Z,993.54
2023-04-01T02:57:13.053Z,993.52
2023-04-01T02:58:12.935Z,993.51
2023-04-01T02:59:13.094Z,993.51
2023-04-01T03:00:13.002Z,993.54
2023-04-01T03:01:13.086Z,993.53
2023-04-01T03:02:12.981Z,993.50
2023-04-01T03:03:13.170Z,993.53
2023-04-01T03:04:13.346Z,993.52
2023-04-01T03:05:13.459Z,993.60
2023-04-01T03:06:13.413Z,993.59
2023-04-01T03:07:13.523Z,993.62
2023-04-01T03:08:13.466Z,993.57
2023-04-01T03:09:13.403Z,993.66
2023-04-01T03:10:13.391Z,993.60
2023-04-01T03:11:13.466Z,993.66
2023-04-01T03:12:13.722Z,993.60
2023-04-01T03:13:13.653Z,993.65
2023-04-01T03:14:13.952Z,993.63
2023-04-01T03:15:13.094Z,993.70
2023-04-01T03:16:14.632Z,993.69
2023-04-01T03:17:13.636Z,993.63
2023-04-01T03:18:13.825Z,993.65
2023-04-01T03:19:13.672Z,993.69
2023-04-01T03:20:13.706Z,993.69
2023-04-01T03:21:13.684Z,993.70
2023-04-01T03:22:14.016Z,993.67
2023-04-01T03:23:12.951Z,993.70
2023-04-01T03:24:12.838Z,993.62
2023-04-01T03:25:13.855Z,993.65
2023-04-01T03:26:13.996Z,993.62
2023-04-01T03:27:13.133Z,993.63
2023-04-01T03:28:13.163Z,993.62
2023-04-01T03:29:13.256Z,993.67
2023-04-01T03:30:13.315Z,993.63
2023-04-01T03:31:13.316Z,993.71
2023-04-01T03:32:13.323Z,993.62
2023-04-01T03:33:13.290Z,993.65
2023-04-01T03:34:13.663Z,993.73
2023-04-01T03:35:13.691Z,993.68
2023-04-01T03:36:13.676Z,993.72
2023-04-01T03:37:13.546Z,993.72
2023-04-01T03:38:13.556Z,993.71
2023-04-01T03:39:13.469Z,993.75
2023-04-01T03:40:13.308Z,993.78
2023-04-01T03:41:13.653Z,993.83
2023-04-01T03:42:13.663Z,993.76
2023-04-01T03:43:13.850Z,993.77
2023-04-01T03:44:13.126Z,993.74
2023-04-01T03:45:13.038Z,993.76
2023-04-01T03:46:13.007Z,993.75
2023-04-01T03:47:12.986Z,993.81
2023-04-01T03:48:13.059Z,993.78
2023-04-01T03:49:13.350Z,993.80
2023-04-01T03:50:13.266Z,993.85
2023-04-01T03:51:13.335Z,993.80
2023-04-01T03:52:13.253Z,993.83
2023-04-01T03:53:13.080Z,993.83
2023-04-01T03:54:13.173Z,993.81
2023-04-01T03:55:13.401Z,993.79
2023-04-01T03:56:13.352Z,993.80
2023-04-01T03:57:13.535Z,993.88
2023-04-01T03:58:13.709Z,993.87
2023-04-01T03:59:13.951Z,993.85
2023-04-01T04:00:12.927Z,993.86
2023-04-01T04:01:13.062Z,993.90
2023-04-01T04:02:13.006Z,993.88
2023-04-01T04:03:13.087Z,993.89
2023-04-01T04:04:13.174Z,993.96
2023-04-01T04:05:13.401Z,993.92
2023-04-01T04:06:13.656Z,993.90
2023-04-01T04:07:13.703Z,993.96
2023-04-01T04:08:13.859Z,993.90
2023-04-01T04:09:13.847Z,993.99
2023-04-01T04:10:14.103Z,993.96
2023-04-01T04:11:13.254Z,994.01
2023-04-01T04:12:13.264Z,993.94
2023-04-01T04:13:13.354Z,993.96
2023-04-01T04:14:13.476Z,994.02
2023-04-01T04:15:13.816Z,994.03
2023-04-01T04:16:13.972Z,994.07
2023-04-01T04:17:13.894Z,993.98
2023-04-01T04:18:13.041Z,994.04
2023-04-01T04:19:12.955Z,994.01
2023-04-01T04:20:12.856Z,993.98
2023-04-01T04:21:14.043Z,993.98
2023-04-01T04:22:13.386Z,994.02
2023-04-01T04:23:13.437Z,994.02
2023-04-01T04:24:13.630Z,994.00
2023-04-01T04:25:13.996Z,994.04
2023-04-01T04:26:13.204Z,994.03
2023-04-01T04:27:13.124Z,994.04
2023-04-01T04:28:13.095Z,994.05
2023-04-01T04:29:12.987Z,994.11
2023-04-01T04:30:13.244Z,994.07
2023-04-01T04:31:13.271Z,994.09
2023-04-01T04:32:13.284Z,994.04
2023-04-01T04:33:13.218Z,994.08
2023-04-01T04:34:13.139Z,994.09
2023-04-01T04:35:13.053Z,994.12
2023-04-01T04:36:13.240Z,994.14
2023-04-01T04:37:13.213Z,994.11
2023-04-01T04:38:13.093Z,994.10
2023-04-01T04:39:13.180Z,994.10
2023-04-01T04:40:13.109Z,994.09
2023-04-01T04:41:12.938Z,994.10
2023-04-01T04:42:12.898Z,994.13
2023-04-01T04:43:13.486Z,994.12
2023-04-01T04:44:13.343Z,994.08
2023-04-01T04:45:13.469Z,994.13
2023-04-01T04:46:13.390Z,994.11
2023-04-01T04:47:13.791Z,994.11
2023-04-01T04:48:13.923Z,994.07
2023-04-01T04:49:12.742Z,994.14
2023-04-01T04:50:14.052Z,994.11
2023-04-01T04:51:13.099Z,994.12
2023-04-01T04:52:13.087Z,994.16
2023-04-01T04:53:13.210Z,994.18
2023-04-01T04:54:13.319Z,994.15
2023-04-01T04:55:13.330Z,994.13
2023-04-01T04:56:13.563Z,994.16
2023-04-01T04:57:13.479Z,994.15
2023-04-01T04:58:13.364Z,994.16
2023-04-01T04:59:13.331Z,994.09
2023-04-01T05:00:15.107Z,994.18
2023-04-01T05:01:13.526Z,994.27
2023-04-01T05:02:13.608Z,994.16
2023-04-01T05:03:13.740Z,994.23
2023-04-01T05:04:13.930Z,994.21
2023-04-01T05:05:12.854Z,994.23
2023-04-01T05:06:14.042Z,994.17
2023-04-01T05:07:12.992Z,994.22
2023-04-01T05:08:12.903Z,994.19
2023-04-01T05:09:12.791Z,994.23
2023-04-01T05:10:13.604Z,994.25
2023-04-01T05:11:13.852Z,994.21
2023-04-01T05:12:13.157Z,994.22
2023-04-01T05:13:13.192Z,994.27
2023-04-01T05:14:13.303Z,994.25
2023-04-01T05:15:13.458Z,994.28
2023-04-01T05:16:13.460Z,994.27
2023-04-01T05:17:13.755Z,994.24
2023-04-01T05:18:13.705Z,994.28
2023-04-01T05:19:13.649Z,994.25
2023-04-01T05:20:13.675Z,994.30
2023-04-01T05:21:13.670Z,994.32
2023-04-01T05:22:13.663Z,994.33
2023-04-01T05:23:13.949Z,994.26
2023-04-01T05:24:12.829Z,994.31
2023-04-01T05:25:13.668Z,994.30
2023-04-01T05:26:13.764Z,994.36
2023-04-01T05:27:13.708Z,994.45
2023-04-01T05:28:13.845Z,994.46
2023-04-01T05:29:13.936Z,994.47
2023-04-01T05:30:13.035Z,994.46
2023-04-01T05:31:12.950Z,994.46
2023-04-01T05:32:12.884Z,994.48
2023-04-01T05:33:12.977Z,994.45
2023-04-01T05:34:13.044Z,994.44
2023-04-01T05:35:12.908Z,994.46
2023-04-01T05:36:12.814Z,994.37
2023-04-01T05:37:12.903Z,994.39
2023-04-01T05:38:12.917Z,994.37
2023-04-01T05:39:12.888Z,994.35
2023-04-01T05:40:12.944Z,994.38
2023-04-01T05:41:12.824Z,994.37
2023-04-01T05:42:13.997Z,994.42
2023-04-01T05:43:13.205Z,994.38
2023-04-01T05:44:13.164Z,994.39
2023-04-01T05:45:13.100Z,994.44
2023-04-01T05:46:13.016Z,994.47
2023-04-01T05:47:13.655Z,994.40
2023-04-01T05:48:13.845Z,994.44
2023-04-01T05:49:13.784Z,994.44
2023-04-01T05:50:13.673Z,994.44
2023-04-01T05:51:14.374Z,994.39
2023-04-01T05:52:13.380Z,994.48
2023-04-01T05:53:13.544Z,994.46
2023-04-01T05:54:13.810Z,994.46
2023-04-01T05:55:13.805Z,994.46
2023-04-01T05:56:13.987Z,994.48
2023-04-01T05:57:12.996Z,994.47
2023-04-01T05:58:13.051Z,994.48
2023-04-01T05:59:12.947Z,994.51
2023-04-01T06:00:12.880Z,994.50
2023-04-01T06:01:16.183Z,994.47
2023-04-01T06:02:13.849Z,994.51
2023-04-01T06:03:13.020Z,994.50
2023-04-01T06:04:13.309Z,994.49
2023-04-01T06:05:13.480Z,994.53
2023-04-01T06:06:13.402Z,994.49
2023-04-01T06:07:13.343Z,994.52
2023-04-01T06:08:13.504Z,994.50
2023-04-01T06:09:13.699Z,994.51
2023-04-01T06:10:13.599Z,994.53
2023-04-01T06:11:13.459Z,994.54
2023-04-01T06:12:13.690Z,994.56
2023-04-01T06:13:13.583Z,994.54
2023-04-01T06:14:13.521Z,994.57
2023-04-01T06:15:13.527Z,994.56
2023-04-01T06:16:13.869Z,994.55
2023-04-01T06:17:12.836Z,994.59
2023-04-01T06:18:13.818Z,994.59
2023-04-01T06:19:14.042Z,994.62
2023-04-01T06:20:13.043Z,994.65
2023-04-01T06:21:13.161Z,994.66
2023-04-01T06:22:13.063Z,994.64
2023-04-01T06:23:13.497Z,994.67
2023-04-01T06:24:13.683Z,994.65
2023-04-01T06:25:13.602Z,994.64
2023-04-01T06:26:13.630Z,994.67
2023-04-01T06:27:13.633Z,994.69
2023-04-01T06:28:13.603Z,994.68
2023-04-01T06:29:13.946Z,994.73
2023-04-01T06:30:13.161Z,994.68
2023-04-01T06:31:13.168Z,994.72
2023-04-01T06:32:13.280Z,994.72
2023-04-01T06:33:13.260Z,994.72
2023-04-01T06:34:47.010Z,994.76
2023-04-01T06:35:13.423Z,994.78
2023-04-01T06:36:13.411Z,994.78
2023-04-01T06:37:13.491Z,994.74
2023-04-01T06:38:13.680Z,994.78
2023-04-01T06:40:13.423Z,994.79
2023-04-01T06:41:13.337Z,994.81
2023-04-01T06:42:44.269Z,994.78
2023-04-01T06:43:13.432Z,994.82
2023-04-01T06:44:13.349Z,994.77
2023-04-01T06:45:13.604Z,994.80
2023-04-01T06:46:13.528Z,994.81
2023-04-01T06:47:13.680Z,994.81
2023-04-01T06:48:13.635Z,994.85
2023-04-01T06:49:13.596Z,994.87
2023-04-01T06:50:13.684Z,994.83
2023-04-01T06:51:13.897Z,994.83
2023-04-01T06:52:12.841Z,994.84
2023-04-01T06:53:14.474Z,994.86
2023-04-01T06:54:13.372Z,994.84
2023-04-01T06:55:13.749Z,994.87
2023-04-01T06:56:13.557Z,994.87
2023-04-01T06:57:13.654Z,994.82
2023-04-01T06:58:14.050Z,994.89
2023-04-01T06:59:13.533Z,994.86
2023-04-01T07:00:13.466Z,994.83
2023-04-01T07:01:13.818Z,994.85
2023-04-01T07:02:14.054Z,994.89
2023-04-01T07:03:13.070Z,994.94
2023-04-01T07:04:13.050Z,994.90
2023-04-01T07:05:13.375Z,994.93
2023-04-01T07:06:13.427Z,994.98
2023-04-01T07:07:13.541Z,994.95
2023-04-01T07:08:13.933Z,994.97
2023-04-01T07:09:13.283Z,994.95
2023-04-01T07:10:13.396Z,994.95
2023-04-01T07:11:13.319Z,994.94
2023-04-01T07:12:13.372Z,995.02
2023-04-01T07:13:13.418Z,995.00
2023-04-01T07:14:13.310Z,994.99
2023-04-01T07:15:13.375Z,995.01
2023-04-01T07:16:13.389Z,995.01
2023-04-01T07:17:13.540Z,995.02
2023-04-01T07:18:13.553Z,994.99
2023-04-01T07:19:13.880Z,995.03
2023-04-01T07:20:12.800Z,995.06
2023-04-01T07:21:13.776Z,995.01
2023-04-01T07:22:13.974Z,995.09
2023-04-01T07:23:13.218Z,995.03
2023-04-01T07:24:13.128Z,995.04
2023-04-01T07:25:13.089Z,995.07
2023-04-01T07:26:13.055Z,995.04
2023-04-01T07:27:13.002Z,995.06
2023-04-01T07:28:13.224Z,995.11
2023-04-01T07:29:13.248Z,995.12
2023-04-01T07:30:14.204Z,995.12
2023-04-01T07:31:13.407Z,995.10
2023-04-01T07:32:13.366Z,995.08
2023-04-01T07:33:13.473Z,995.12
2023-04-01T07:34:13.553Z,995.13
2023-04-01T07:35:13.854Z,995.15
2023-04-01T07:36:13.740Z,995.15
2023-04-01T07:37:14.138Z,995.13
2023-04-01T07:38:13.448Z,995.15
2023-04-01T07:39:13.435Z,995.09
2023-04-01T07:40:13.427Z,995.17
2023-04-01T07:41:13.287Z,995.18
2023-04-01T07:42:13.198Z,995.18
2023-04-01T07:43:13.085Z,995.16
2023-04-01T07:44:13.296Z,995.20
2023-04-01T07:45:13.329Z,995.19
2023-04-01T07:46:13.475Z,995.25
2023-04-01T07:47:13.798Z,995.23
2023-04-01T07:48:13.605Z,995.19
2023-04-01T07:49:13.584Z,995.25
2023-04-01T07:50:13.399Z,995.23
2023-04-01T07:51:13.362Z,995.24
2023-04-01T07:52:13.369Z,995.27
2023-04-01T07:53:20.946Z,995.29
2023-04-01T07:54:13.512Z,995.25
2023-04-01T07:55:13.782Z,995.29
2023-04-01T07:56:15.182Z,995.30
2023-04-01T07:57:13.222Z,995.34
2023-04-01T07:58:13.307Z,995.29
2023-04-01T07:59:13.181Z,995.33
2023-04-01T08:00:13.096Z,995.29
2023-04-01T08:01:13.541Z,995.37
2023-04-01T08:02:13.482Z,995.34
2023-04-01T08:03:13.542Z,995.35
2023-04-01T08:04:13.996Z,995.39
2023-04-01T08:05:14.386Z,995.34
2023-04-01T08:06:13.670Z,995.37
2023-04-01T08:07:14.230Z,995.37
2023-04-01T08:08:13.382Z,995.34
2023-04-01T08:09:13.379Z,995.42
2023-04-01T08:10:13.474Z,995.41
2023-04-01T08:11:13.647Z,995.40
2023-04-01T08:12:13.676Z,995.43
2023-04-01T08:13:13.778Z,995.43
2023-04-01T08:14:13.880Z,995.42
2023-04-01T08:15:13.077Z,995.43
2023-04-01T08:16:13.193Z,995.47
2023-04-01T08:17:13.238Z,995.42
2023-04-01T08:18:13.134Z,995.47
2023-04-01T08:19:13.357Z,995.49
2023-04-01T08:20:13.274Z,995.43
2023-04-01T08:21:13.224Z,995.47
2023-04-01T08:22:13.448Z,995.55
2023-04-01T08:23:13.424Z,995.46
2023-04-01T08:24:13.537Z,995.48
2023-04-01T08:25:13.543Z,995.50
2023-04-01T08:26:13.426Z,995.57
2023-04-01T08:27:13.692Z,995.55
2023-04-01T08:28:13.488Z,995.54
2023-04-01T08:29:13.520Z,995.54
2023-04-01T08:30:13.573Z,995.53
2023-04-01T08:31:14.006Z,995.57
2023-04-01T08:32:13.075Z,995.56
2023-04-01T08:33:13.437Z,995.58
2023-04-01T08:34:13.452Z,995.61
2023-04-01T08:35:13.604Z,995.62
2023-04-01T08:36:13.956Z,995.60
2023-04-01T08:37:13.302Z,995.67
2023-04-01T08:38:13.596Z,995.65
2023-04-01T08:39:13.648Z,995.69
2023-04-01T08:40:14.014Z,995.68
2023-04-01T08:41:13.185Z,995.67
2023-04-01T08:42:13.024Z,995.69
2023-04-01T08:43:12.937Z,995.77
2023-04-01T08:44:13.268Z,995.73
2023-04-01T08:45:14.650Z,995.73
2023-04-01T08:46:14.048Z,995.75
2023-04-01T08:47:13.221Z,995.73
2023-04-01T08:48:13.161Z,995.73
2023-04-01T08:49:13.216Z,995.82
2023-04-01T08:50:13.222Z,995.79
2023-04-01T08:51:13.678Z,995.82
2023-04-01T08:52:13.502Z,995.78
2023-04-01T08:53:13.374Z,995.72
2023-04-01T08:54:13.218Z,995.79
2023-04-01T08:55:13.318Z,995.81
2023-04-01T08:56:13.800Z,995.85
2023-04-01T08:57:13.924Z,995.88
2023-04-01T08:58:12.983Z,995.88
2023-04-01T08:59:12.950Z,995.86
2023-04-01T09:00:12.959Z,995.85
2023-04-01T09:01:12.847Z,995.89
2023-04-01T09:02:14.030Z,995.88
2023-04-01T09:03:13.453Z,995.95
2023-04-01T09:04:13.424Z,995.91
2023-04-01T09:05:13.423Z,995.96
2023-04-01T09:06:13.354Z,995.93
2023-04-01T09:07:13.402Z,995.99
2023-04-01T09:08:13.330Z,995.95
2023-04-01T09:09:13.418Z,995.98
2023-04-01T09:10:13.336Z,995.98
2023-04-01T09:11:13.438Z,995.95
2023-04-01T09:12:13.474Z,995.98
2023-04-01T09:13:13.446Z,995.97
2023-04-01T09:14:13.676Z,995.97
2023-04-01T09:15:13.677Z,996.02
2023-04-01T09:16:13.794Z,996.03
2023-04-01T09:17:14.124Z,996.00
2023-04-01T09:18:13.026Z,996.06
2023-04-01T09:19:13.089Z,996.05
2023-04-01T09:20:13.064Z,996.04
2023-04-01T09:21:13.296Z,996.04
2023-04-01T09:22:13.393Z,996.03
2023-04-01T09:23:13.401Z,996.07
2023-04-01T09:24:13.416Z,996.06
2023-04-01T09:25:13.532Z,996.08
2023-04-01T09:26:13.700Z,996.11
2023-04-01T09:27:14.056Z,996.13
2023-04-01T09:28:13.015Z,996.11
2023-04-01T09:30:13.922Z,996.14
2023-04-01T09:31:13.221Z,996.11
2023-04-01T09:32:13.471Z,996.14
2023-04-01T09:33:13.686Z,996.18
2023-04-01T09:34:13.956Z,996.20
2023-04-01T09:35:13.021Z,996.21
2023-04-01T09:36:13.186Z,996.22
2023-04-01T09:37:13.232Z,996.27
2023-04-01T09:38:13.202Z,996.26
2023-04-01T09:39:13.143Z,996.27
2023-04-01T09:40:19.010Z,996.31
2023-04-01T09:41:13.259Z,996.30
2023-04-01T09:42:13.701Z,996.33
2023-04-01T09:43:13.741Z,996.33
2023-04-01T09:44:14.047Z,996.32
2023-04-01T09:45:13.018Z,996.28
2023-04-01T09:46:13.495Z,996.34
2023-04-01T09:47:28.667Z,996.38
2023-04-01T09:48:13.668Z,996.36
2023-04-01T09:49:13.728Z,996.39
2023-04-01T09:50:14.211Z,996.35
2023-04-01T09:52:26.088Z,996.44
2023-04-01T09:53:13.111Z,996.48
2023-04-01T09:54:13.132Z,996.40
2023-04-01T09:55:13.162Z,996.42
2023-04-01T09:56:13.116Z,996.40
2023-04-01T09:57:14.490Z,996.44
2023-04-01T09:58:13.883Z,996.46
2023-04-01T09:59:12.913Z,996.47
2023-04-01T10:00:12.895Z,996.49
2023-04-01T10:01:12.893Z,996.49
2023-04-01T10:02:12.750Z,996.51
2023-04-01T10:03:13.930Z,996.51
2023-04-01T10:04:12.970Z,996.51
2023-04-01T10:05:13.201Z,996.50
2023-04-01T10:06:13.135Z,996.53
2023-04-01T10:07:13.324Z,996.52
2023-04-01T10:08:13.400Z,996.54
2023-04-01T10:09:13.512Z,996.59
2023-04-01T10:10:13.381Z,996.57
2023-04-01T10:11:13.392Z,996.51
2023-04-01T10:12:13.423Z,996.61
2023-04-01T10:13:13.435Z,996.60
2023-04-01T10:14:13.343Z,996.63
2023-04-01T10:15:13.683Z,996.65
2023-04-01T10:16:13.722Z,996.62
2023-04-01T10:17:13.880Z,996.61
2023-04-01T10:18:14.264Z,996.62
2023-04-01T10:19:13.284Z,996.70
2023-04-01T10:20:13.450Z,996.65
2023-04-01T10:21:13.515Z,996.71
2023-04-01T10:22:13.715Z,996.69
2023-04-01T10:23:13.617Z,996.71
2023-04-01T10:24:13.794Z,996.72
2023-04-01T10:25:13.637Z,996.76
2023-04-01T10:26:13.534Z,996.70
2023-04-01T10:27:13.928Z,996.72
2023-04-01T10:28:12.847Z,996.71
2023-04-01T10:29:13.813Z,996.66
2023-04-01T10:30:13.665Z,996.74
2023-04-01T10:31:14.602Z,996.75
2023-04-01T10:32:13.872Z,996.71
2023-04-01T10:34:13.404Z,996.74
2023-04-01T10:35:13.409Z,996.75
2023-04-01T10:36:14.392Z,996.76
2023-04-01T10:37:13.510Z,996.77
2023-04-01T10:38:18.718Z,996.79
2023-04-01T10:39:13.673Z,996.75
2023-04-01T10:40:13.542Z,996.80
2023-04-01T10:41:13.491Z,996.81
2023-04-01T10:42:13.636Z,996.77
2023-04-01T10:43:13.883Z,996.79
2023-04-01T10:44:14.491Z,996.81
2023-04-01T10:45:13.439Z,996.77
2023-04-01T10:46:15.624Z,996.83
2023-04-01T10:47:12.850Z,996.78
2023-04-01T10:48:13.805Z,996.83
2023-04-01T10:49:13.978Z,996.83
2023-04-01T10:50:12.845Z,996.83
2023-04-01T10:51:13.942Z,996.82
2023-04-01T10:52:12.996Z,996.83
2023-04-01T10:53:13.002Z,996.82
2023-04-01T10:54:12.836Z,996.87
2023-04-01T10:55:14.163Z,996.86
2023-04-01T10:56:13.480Z,996.82
2023-04-01T10:57:13.758Z,996.88
2023-04-01T10:58:13.824Z,996.88
2023-04-01T10:59:13.810Z,996.86
2023-04-01T11:00:14.002Z,996.91
2023-04-01T11:01:13.222Z,996.90
2023-04-01T11:02:13.800Z,996.84
2023-04-01T11:03:13.344Z,996.90
2023-04-01T11:04:13.671Z,996.92
2023-04-01T11:05:13.800Z,996.86
2023-04-01T11:06:14.051Z,996.88
2023-04-01T11:07:13.031Z,996.92
2023-04-01T11:08:13.052Z,996.92
2023-04-01T11:09:12.925Z,996.93
2023-04-01T11:10:12.935Z,996.91
2023-04-01T11:11:13.404Z,996.95
2023-04-01T11:12:13.285Z,996.95
2023-04-01T11:13:13.192Z,996.95
2023-04-01T11:14:13.132Z,996.98
2023-04-01T11:15:13.071Z,996.95
2023-04-01T11:16:13.293Z,996.98
2023-04-01T11:17:13.257Z,996.96
2023-04-01T11:18:13.525Z,997.03
2023-04-01T11:19:13.590Z,997.00
2023-04-01T11:20:13.862Z,997.08
2023-04-01T11:21:13.890Z,997.02
2023-04-01T11:22:13.761Z,996.98
2023-04-01T11:23:13.767Z,997.06
2023-04-01T11:24:13.659Z,997.03
2023-04-01T11:25:13.801Z,997.02
2023-04-01T11:26:13.879Z,997.05
2023-04-01T11:27:13.942Z,997.07
2023-04-01T11:28:13.255Z,997.09
2023-04-01T11:29:13.422Z,997.10
2023-04-01T11:30:13.313Z,997.08
2023-04-01T11:31:13.280Z,997.09
2023-04-01T11:32:13.366Z,997.09
2023-04-01T11:33:13.310Z,997.14
2023-04-01T11:34:13.476Z,997.03
2023-04-01T11:35:13.460Z,997.14
2023-04-01T11:36:33.806Z,997.12
2023-04-01T11:37:18.873Z,997.20
2023-04-01T11:38:13.147Z,997.20
2023-04-01T11:39:13.044Z,997.22
2023-04-01T11:40:13.128Z,997.22
2023-04-01T11:41:18.279Z,997.25
2023-04-01T11:42:13.333Z,997.25
2023-04-01T11:43:26.314Z,997.21
2023-04-01T11:44:13.850Z,997.26
2023-04-01T11:45:14.126Z,997.32
2023-04-01T11:46:13.149Z,997.22
2023-04-01T11:47:13.098Z,997.31
2023-04-01T11:48:13.178Z,997.34
2023-04-01T11:49:12.985Z,997.35
2023-04-01T11:50:13.188Z,997.32
2023-04-01T11:51:13.448Z,997.37
2023-04-01T11:52:13.306Z,997.38
2023-04-01T11:53:13.589Z,997.31
2023-04-01T11:54:13.703Z,997.42
2023-04-01T11:55:13.607Z,997.42
2023-04-01T11:56:14.368Z,997.45
2023-04-01T11:57:13.266Z,997.47
2023-04-01T11:58:13.340Z,997.48
2023-04-01T11:59:13.296Z,997.52
2023-04-01T12:00:13.491Z,997.44
2023-04-01T12:01:13.456Z,997.55
2023-04-01T12:02:13.818Z,997.54
2023-04-01T12:03:14.014Z,997.54
2023-04-01T12:04:13.529Z,997.58
2023-04-01T12:05:13.634Z,997.53
2023-04-01T12:06:13.684Z,997.56
2023-04-01T12:07:13.610Z,997.57
2023-04-01T12:08:13.426Z,997.56
2023-04-01T12:09:13.336Z,997.63
2023-04-01T12:10:13.150Z,997.62
2023-04-01T12:11:13.291Z,997.66
2023-04-01T12:12:13.321Z,997.64
2023-04-01T12:13:13.193Z,997.65
2023-04-01T12:14:13.189Z,997.64
2023-04-01T12:15:13.102Z,997.67
2023-04-01T12:16:13.405Z,997.68
2023-04-01T12:17:13.334Z,997.67
2023-04-01T12:18:13.302Z,997.64
2023-04-01T12:19:13.828Z,997.68
2023-04-01T12:20:13.872Z,997.74
2023-04-01T12:21:12.905Z,997.71
2023-04-01T12:22:12.758Z,997.74
2023-04-01T12:23:13.690Z,997.77
2023-04-01T12:24:13.602Z,997.75
2023-04-01T12:25:13.429Z,997.76
2023-04-01T12:27:13.576Z,997.77
2023-04-01T12:28:13.583Z,997.77
2023-04-01T12:29:15.611Z,997.79
2023-04-01T12:30:13.522Z,997.75
2023-04-01T12:31:13.419Z,997.81
2023-04-01T12:32:13.356Z,997.76
2023-04-01T12:33:13.480Z,997.81